createdAt,value
2019-04-20T00:01:38.803Z,99.90
2019-04-20T00:04:09.877Z,99.90
2019-04-20T00:06:47.818Z,99.90
2019-04-20T00:09:15.938Z,99.90
2019-04-20T00:11:55.238Z,99.90
2019-04-20T00:14:19.300Z,99.90
2019-04-20T00:16:44.418Z,99.90
2019-04-20T00:19:22.632Z,99.90
2019-04-20T00:21:57.470Z,99.90
2019-04-20T00:24:35.928Z,99.90
2019-04-20T00:27:26.034Z,99.90
2019-04-20T00:29:54.897Z,99.90
2019-04-20T00:32:20.898Z,99.90
2019-04-20T00:34:45.279Z,99.90
2019-04-20T00:37:13.150Z,99.90
2019-04-20T00:39:42.718Z,99.90
2019-04-20T00:42:15.863Z,99.90
2019-04-20T00:44:45.801Z,99.90
2019-04-20T00:47:29.506Z,99.90
2019-04-20T00:49:57.930Z,99.90
2019-04-20T00:52:32.868Z,99.90
2019-04-20T00:54:47.354Z,99.90
2019-04-20T00:57:24.455Z,99.90
2019-04-20T01:00:11.130Z,99.90
2019-04-20T01:02:37.145Z,99.90
2019-04-20T01:05:10.941Z,99.90
2019-04-20T01:07:52.098Z,99.90
2019-04-20T01:10:17.745Z,99.90
2019-04-20T01:12:47.488Z,99.90
2019-04-20T01:15:28.098Z,99.90
2019-04-20T01:17:48.947Z,99.90
2019-04-20T01:20:26.471Z,99.90
2019-04-20T01:23:01.927Z,99.90
2019-04-20T01:25:34.977Z,99.90
2019-04-20T01:28:13.267Z,99.90
2019-04-20T01:30:50.606Z,99.90
2019-04-20T01:33:25.179Z,99.90
2019-04-20T01:36:10.428Z,99.90
2019-04-20T01:38:39.907Z,99.90
2019-04-20T01:40:55.027Z,99.90
2019-04-20T01:43:24.747Z,99.90
2019-04-20T01:46:01.349Z,99.90
2019-04-20T01:48:30.091Z,99.90
2019-04-20T01:51:06.570Z,99.90
2019-04-20T01:53:51.375Z,99.90
2019-04-20T01:56:24.451Z,99.90
2019-04-20T01:59:26.670Z,99.90
2019-04-20T02:02:05.193Z,99.90
2019-04-20T02:04:45.975Z,99.90
2019-04-20T02:07:13.660Z,99.90
2019-04-20T02:09:49.532Z,99.90
2019-04-20T02:12:21.581Z,99.90
2019-04-20T02:14:52.438Z,99.90
2019-04-20T02:17:30.016Z,99.90
2019-04-20T02:20:10.480Z,99.90
2019-04-20T02:22:44.570Z,99.90
2019-04-20T02:24:55.148Z,99.90
2019-04-20T02:27:31.334Z,99.90
2019-04-20T02:30:21.704Z,99.90
2019-04-20T02:33:16.739Z,99.90
2019-04-20T02:35:56.202Z,99.90
2019-04-20T02:38:39.272Z,99.90
2019-04-20T02:41:03.297Z,99.90
2019-04-20T02:43:40.175Z,99.90
2019-04-20T02:45:59.394Z,99.90
2019-04-20T02:48:29.903Z,99.90
2019-04-20T02:53:46.944Z,99.90
2019-04-20T02:56:15.207Z,99.90
2019-04-20T02:58:45.484Z,99.90
2019-04-20T03:01:15.911Z,99.90
2019-04-20T03:03:32.824Z,99.90
2019-04-20T03:06:19.598Z,99.90
2019-04-20T03:09:06.406Z,99.90
2019-04-20T03:11:40.446Z,99.90
2019-04-20T03:14:07.247Z,99.90
2019-04-20T03:16:32.357Z,99.90
2019-04-20T03:18:58.702Z,99.90
2019-04-20T03:21:38.025Z,99.90
2019-04-20T03:24:13.207Z,99.90
2019-04-20T03:26:41.979Z,99.90
2019-04-20T03:29:36.082Z,99.90
2019-04-20T03:32:39.867Z,99.90
2019-04-20T03:37:15.620Z,99.90
2019-04-20T03:39:36.320Z,99.90
2019-04-20T03:41:56.653Z,99.90
2019-04-20T03:44:27.853Z,99.90
2019-04-20T03:47:01.215Z,99.90
2019-04-20T03:49:55.057Z,99.90
2019-04-20T03:52:31.318Z,99.90
2019-04-20T03:55:01.389Z,99.90
2019-04-20T03:57:54.261Z,99.90
2019-04-20T04:00:38.800Z,99.90
2019-04-20T04:03:48.797Z,99.90
2019-04-20T04:06:09.625Z,99.90
2019-04-20T04:08:36.429Z,99.90
2019-04-20T04:11:16.301Z,99.90
2019-04-20T04:13:31.471Z,99.90
2019-04-20T04:16:06.104Z,99.90
2019-04-20T04:18:39.456Z,99.90
2019-04-20T04:21:12.644Z,99.90
2019-04-20T04:23:57.521Z,99.90
2019-04-20T04:26:27.523Z,99.90
2019-04-20T04:28:53.575Z,99.90
2019-04-20T04:31:30.783Z,99.90
2019-04-20T04:34:03.616Z,99.90
2019-04-20T04:36:30.379Z,99.90
2019-04-20T04:39:08.884Z,99.90
2019-04-20T04:41:37.444Z,99.90
2019-04-20T04:44:04.774Z,99.90
2019-04-20T04:46:18.549Z,99.90
2019-04-20T04:48:51.138Z,99.90
2019-04-20T04:51:24.426Z,99.90
2019-04-20T04:53:59.799Z,99.90
2019-04-20T04:56:24.933Z,99.90
2019-04-20T04:58:54.101Z,99.90
2019-04-20T05:01:27.395Z,99.90
2019-04-20T05:06:39.755Z,99.90
2019-04-20T05:09:03.278Z,99.90
2019-04-20T05:11:30.058Z,99.90
2019-04-20T05:14:05.219Z,99.90
2019-04-20T05:16:53.984Z,99.90
2019-04-20T05:19:26.091Z,99.90
2019-04-20T05:22:03.934Z,99.90
2019-04-20T05:24:33.813Z,99.90
2019-04-20T05:27:32.046Z,99.90
2019-04-20T05:29:42.861Z,99.90
2019-04-20T05:32:17.993Z,99.90
2019-04-20T05:35:12.294Z,99.90
2019-04-20T05:37:43.492Z,99.90
2019-04-20T05:40:11.905Z,99.90
2019-04-20T05:42:54.173Z,99.90
2019-04-20T05:45:20.647Z,99.90
2019-04-20T05:47:55.151Z,99.90
2019-04-20T05:50:27.182Z,99.90
2019-04-20T05:53:02.737Z,99.90
2019-04-20T05:55:34.510Z,99.90
2019-04-20T05:58:03.612Z,99.90
2019-04-20T06:00:45.911Z,99.90
2019-04-20T06:03:06.107Z,99.90
2019-04-20T06:05:48.839Z,99.90
2019-04-20T06:08:14.891Z,99.90
2019-04-20T06:10:45.245Z,99.90
2019-04-20T06:13:29.744Z,99.90
2019-04-20T06:16:08.916Z,99.90
2019-04-20T06:18:40.169Z,99.90
2019-04-20T06:21:26.564Z,99.90
2019-04-20T06:24:10.674Z,99.90
2019-04-20T06:26:52.114Z,99.90
2019-04-20T06:29:07.290Z,99.90
2019-04-20T06:31:40.975Z,99.90
2019-04-20T06:36:53.457Z,99.90
2019-04-20T06:39:44.939Z,99.90
2019-04-20T06:44:39.714Z,99.90
2019-04-20T06:49:40.624Z,99.90
2019-04-20T06:52:34.287Z,99.90
2019-04-20T06:55:08.260Z,99.90
2019-04-20T06:57:48.593Z,99.90
2019-04-20T07:00:15.616Z,99.90
2019-04-20T07:02:51.153Z,99.90
2019-04-20T07:05:24.799Z,99.90
2019-04-20T07:08:07.028Z,99.90
2019-04-20T07:10:35.856Z,99.90
2019-04-20T07:12:55.636Z,99.90
2019-04-20T07:15:29.239Z,99.90
2019-04-20T07:18:09.189Z,99.90
2019-04-20T07:20:59.583Z,99.90
2019-04-20T07:23:40.678Z,99.90
2019-04-20T07:26:16.926Z,99.90
2019-04-20T07:28:55.885Z,99.90
2019-04-20T07:31:21.459Z,99.90
2019-04-20T07:33:48.231Z,99.90
2019-04-20T07:36:28.747Z,99.90
2019-04-20T07:38:59.722Z,99.90
2019-04-20T07:41:36.623Z,99.90
2019-04-20T07:44:03.534Z,99.90
2019-04-20T07:46:43.875Z,99.90
2019-04-20T07:49:01.865Z,99.90
2019-04-20T07:51:18.264Z,99.90
2019-04-20T07:54:21.267Z,99.90
2019-04-20T07:56:42.421Z,99.90
2019-04-20T07:58:57.076Z,99.90
2019-04-20T08:02:04.318Z,93.90
2019-04-20T08:04:28.841Z,99.90
2019-04-20T08:06:55.684Z,99.90
2019-04-20T08:09:32.846Z,93.70
2019-04-20T08:12:26.843Z,83.40
2019-04-20T08:14:57.591Z,86.80
2019-04-20T08:17:41.910Z,92.20
2019-04-20T08:20:02.750Z,94.20
2019-04-20T08:22:35.462Z,83.20
2019-04-20T08:25:04.587Z,93.70
2019-04-20T08:27:25.761Z,95.50
2019-04-20T08:30:20.637Z,94.10
2019-04-20T08:33:05.265Z,90.10
2019-04-20T08:35:39.551Z,78.00
2019-04-20T08:40:52.081Z,71.70
2019-04-20T08:43:34.974Z,69.60
2019-04-20T08:46:01.848Z,74.10
2019-04-20T08:48:29.806Z,68.70
2019-04-20T08:50:57.774Z,74.00
2019-04-20T08:53:33.542Z,83.70
2019-04-20T08:55:54.250Z,83.60
2019-04-20T08:58:11.299Z,65.70
2019-04-20T09:00:46.824Z,69.30
2019-04-20T09:03:19.857Z,71.30
2019-04-20T09:06:03.242Z,65.70
2019-04-20T09:08:32.649Z,59.40
2019-04-20T09:11:14.297Z,65.40
2019-04-20T09:13:36.325Z,64.20
2019-04-20T09:16:01.996Z,59.10
2019-04-20T09:18:51.455Z,61.40
2019-04-20T09:21:27.128Z,56.70
2019-04-20T09:24:10.551Z,58.70
2019-04-20T09:26:37.712Z,60.50
2019-04-20T09:29:05.417Z,55.30
2019-04-20T09:31:43.102Z,51.00
2019-04-20T09:34:46.577Z,53.30
2019-04-20T09:37:41.676Z,51.90
2019-04-20T09:40:25.518Z,51.10
2019-04-20T09:42:52.124Z,48.20
2019-04-20T09:45:37.279Z,47.70
2019-04-20T09:48:03.137Z,47.60
2019-04-20T09:50:47.578Z,46.70
2019-04-20T09:53:19.791Z,47.40
2019-04-20T09:55:53.395Z,46.50
2019-04-20T09:58:18.997Z,47.60
2019-04-20T10:01:00.762Z,44.20
2019-04-20T10:03:16.527Z,46.00
2019-04-20T10:05:49.536Z,43.10
2019-04-20T10:08:19.759Z,42.20
2019-04-20T10:10:50.688Z,42.10
2019-04-20T10:13:22.208Z,43.50
2019-04-20T10:15:53.898Z,43.70
2019-04-20T10:18:23.764Z,41.30
2019-04-20T10:20:53.852Z,41.60
2019-04-20T10:23:24.870Z,40.10
2019-04-20T10:25:54.351Z,40.90
2019-04-20T10:28:23.758Z,40.70
2019-04-20T10:30:53.121Z,40.80
2019-04-20T10:33:25.777Z,42.80
2019-04-20T10:35:54.985Z,41.20
2019-04-20T10:38:32.875Z,41.40
2019-04-20T10:41:09.504Z,40.90
2019-04-20T18:42:23.723Z,49.40
2019-04-20T18:45:00.917Z,50.40
2019-04-20T18:47:44.437Z,50.80
2019-04-20T18:50:03.688Z,51.60
2019-04-20T18:52:24.664Z,52.80
2019-04-20T18:54:55.643Z,52.80
2019-04-20T18:57:29.631Z,53.90
2019-04-20T18:59:59.128Z,54.90
2019-04-20T19:02:33.546Z,55.80
2019-04-20T19:05:03.409Z,56.30
2019-04-20T19:07:34.891Z,57.40
2019-04-20T19:10:11.182Z,58.60
2019-04-20T19:12:46.173Z,59.60
2019-04-20T19:15:51.185Z,60.50
2019-04-20T19:18:47.840Z,61.00
2019-04-20T19:21:03.470Z,62.30
2019-04-20T19:23:48.572Z,63.20
2019-04-20T19:26:13.797Z,64.20
2019-04-20T19:28:46.327Z,65.50
2019-04-20T19:31:26.907Z,66.90
2019-04-20T19:34:01.848Z,67.70
2019-04-20T19:36:25.626Z,68.30
2019-04-20T19:39:01.817Z,69.00
2019-04-20T19:41:29.834Z,70.20
2019-04-20T19:44:02.536Z,71.40
2019-04-20T19:49:01.327Z,74.20
2019-04-20T19:51:49.254Z,75.20
2019-04-20T19:54:26.914Z,76.40
2019-04-20T19:56:49.799Z,76.10
2019-04-20T19:59:18.597Z,76.50
2019-04-20T20:01:35.978Z,77.20
2019-04-20T20:04:09.278Z,79.70
2019-04-20T20:06:43.146Z,81.00
2019-04-20T20:09:12.250Z,81.80
2019-04-20T20:11:42.917Z,83.60
2019-04-20T20:14:13.299Z,83.30
2019-04-20T20:17:06.690Z,86.00
2019-04-20T20:19:29.439Z,83.20
2019-04-20T20:21:59.071Z,86.20
2019-04-20T20:24:19.614Z,89.00
2019-04-20T20:26:56.295Z,89.70
2019-04-20T20:29:33.222Z,89.50
2019-04-20T20:32:11.693Z,91.50
2019-04-20T20:34:34.546Z,96.60
2019-04-20T20:37:08.489Z,93.00
2019-04-20T20:39:36.297Z,91.80
2019-04-20T20:42:15.403Z,99.90
2019-04-20T20:44:41.086Z,99.90
2019-04-20T20:47:34.137Z,99.90
2019-04-20T20:50:03.575Z,99.90
2019-04-20T20:52:27.344Z,99.90
2019-04-20T20:54:52.279Z,99.90
2019-04-20T20:57:15.323Z,99.50
2019-04-20T20:59:52.820Z,99.00
2019-04-20T21:02:19.658Z,99.10
2019-04-20T21:04:44.049Z,98.50
2019-04-20T21:07:13.589Z,99.90
2019-04-20T21:09:42.718Z,98.50
2019-04-20T21:12:15.915Z,98.30
2019-04-20T21:14:46.855Z,98.70
2019-04-20T21:17:18.371Z,99.90
2019-04-20T21:20:03.462Z,99.90
2019-04-20T21:22:33.808Z,99.90
2019-04-20T21:24:53.082Z,99.20
2019-04-20T21:27:23.931Z,99.90
2019-04-20T21:29:57.857Z,99.90
2019-04-20T21:32:28.137Z,99.90
2019-04-20T21:35:01.692Z,99.90
2019-04-20T21:37:28.947Z,99.90
2019-04-20T21:40:00.545Z,99.90
2019-04-20T21:42:34.715Z,99.90
2019-04-20T21:45:07.035Z,99.90
2019-04-20T21:47:36.321Z,99.90
2019-04-20T21:50:21.394Z,99.90
2019-04-20T21:52:42.439Z,99.90
2019-04-20T21:55:09.862Z,99.90
2019-04-20T21:57:48.664Z,99.30
2019-04-20T22:00:21.707Z,99.90
2019-04-20T22:02:54.148Z,99.90
2019-04-20T22:05:15.672Z,99.90
2019-04-20T22:07:46.501Z,99.20
2019-04-20T22:10:19.908Z,99.20
2019-04-20T22:12:53.867Z,98.00
2019-04-20T22:15:27.122Z,96.80
2019-04-20T22:17:59.189Z,96.10
2019-04-20T22:20:33.127Z,96.00
2019-04-20T22:23:05.756Z,96.20
2019-04-20T22:25:47.785Z,95.60
2019-04-20T22:28:02.348Z,95.80
2019-04-20T22:30:33.493Z,95.30
2019-04-20T22:33:08.101Z,94.40
2019-04-20T22:35:47.886Z,94.20
2019-04-20T22:38:37.651Z,94.90
2019-04-20T22:41:27.743Z,94.20
2019-04-20T22:43:56.715Z,93.90
2019-04-20T22:46:34.115Z,94.70
2019-04-20T22:49:17.979Z,94.70
2019-04-20T22:51:46.211Z,94.70
2019-04-20T22:54:23.192Z,95.20
2019-04-20T22:56:47.094Z,95.10
2019-04-20T22:59:13.165Z,95.20
2019-04-20T23:01:46.482Z,94.80
2019-04-20T23:04:10.834Z,95.60
2019-04-20T23:06:45.832Z,95.30
2019-04-20T23:09:15.113Z,95.00
2019-04-20T23:11:45.697Z,95.00
2019-04-20T23:14:16.241Z,96.00
2019-04-20T23:16:50.627Z,95.90
2019-04-20T23:19:28.814Z,96.30
2019-04-20T23:21:55.735Z,97.40
2019-04-20T23:24:20.218Z,97.00
2019-04-20T23:26:50.814Z,98.30
2019-04-20T23:29:21.415Z,98.30
2019-04-20T23:31:57.439Z,99.40
2019-04-20T23:34:29.059Z,99.00
2019-04-20T23:36:56.757Z,99.90
2019-04-20T23:39:34.754Z,99.30
2019-04-20T23:42:05.627Z,99.90
2019-04-20T23:44:51.134Z,99.90
2019-04-20T23:47:34.213Z,99.90
2019-04-20T23:50:19.473Z,99.90
2019-04-20T23:53:00.012Z,99.90
2019-04-20T23:55:16.976Z,99.90
2019-04-20T23:57:51.525Z,99.90
